Liss, United Kingdom
Current Conditions -  °F | °C
As of 2:50 PM on Tuesday 21 Oct 2014 (Local Time) from EGVO Reporting Station
Few Clouds Few Clouds  
Wind Chill: 54°   Ceiling: Unl
Heat Index: 54°   Visibility: 6mi
Dew Point: 36°   Wind: 23mph
Humidity: 51%   Direction: 280°W
Pressure: 29.8"   Gusts: NA
Location:  51.04°N, 0.89°W
Report Text: EGVO 211350Z 28020KT 9999 FEW015 FEW035CB 12/02 Q1009 BLU NOSIG
Loading
Personal Weather Stations






























Interactive Weather Map
Tropical Storm Tracking
New forecast layout! Learn more

10-Day Weather Forecast

Advertisements
Track Severe Weather on mobile